Time;durP1;ratioP1;P1;durP2;ratioP2;P2;SDS_P1;SDS_P2;PMS_P1;PMS_P2;Temp;Humidity;BMP_temperature;BMP_pressure;BME280_temperature;BME280_humidity;BME280_pressure;Samples;Min_cycle;Max_cycle;Signal;HPM_P1;HPM_P2
2021/04/18 00:01:24;;;;;;;7.00;4.30;;;7.60;27.80;;;;;;5032194;28;20937;-77
2021/04/18 00:03:49;;;;;;;7.70;4.53;;;7.60;27.90;;;;;;5031211;28;20390;-76
2021/04/18 00:06:17;;;;;;;12.60;4.80;;;7.50;28.60;;;;;;5032049;28;20388;-76
2021/04/18 00:08:43;;;;;;;9.13;4.70;;;7.40;28.80;;;;;;5031752;28;20490;-76
2021/04/18 00:11:09;;;;;;;9.73;4.65;;;7.40;28.60;;;;;;5039192;28;20389;-76
2021/04/18 00:13:34;;;;;;;9.43;4.40;;;7.40;29.10;;;;;;5031478;28;20890;-77
2021/04/18 00:16:00;;;;;;;7.85;4.32;;;7.30;29.80;;;;;;5037184;28;20405;-77
2021/04/18 00:18:26;;;;;;;8.70;4.40;;;7.30;29.60;;;;;;5043591;28;20400;-77
2021/04/18 00:20:51;;;;;;;10.20;4.70;;;7.40;29.40;;;;;;5053239;28;20381;-78
2021/04/18 00:23:17;;;;;;;9.02;4.70;;;7.30;29.30;;;;;;5043444;28;20456;-76
2021/04/18 00:25:42;;;;;;;13.53;5.27;;;7.30;29.20;;;;;;5051478;28;20401;-76
2021/04/18 00:28:08;;;;;;;8.67;4.80;;;7.30;29.30;;;;;;5051458;28;20439;-77
2021/04/18 00:30:33;;;;;;;11.47;4.80;;;7.20;29.30;;;;;;5033548;28;20385;-77
2021/04/18 00:33:00;;;;;;;11.43;5.07;;;7.20;29.40;;;;;;5052031;28;20427;-78
2021/04/18 00:35:26;;;;;;;8.82;4.43;;;7.20;29.30;;;;;;5051945;28;20382;-77
2021/04/18 00:37:51;;;;;;;12.13;4.27;;;7.20;29.30;;;;;;5034389;28;20509;-78
2021/04/18 00:40:20;;;;;;;8.00;4.40;;;7.20;29.40;;;;;;5025352;28;20755;-77
2021/04/18 00:42:46;;;;;;;10.20;5.32;;;7.20;29.60;;;;;;5050612;28;20440;-77
2021/04/18 00:45:13;;;;;;;13.18;5.65;;;7.20;30.60;;;;;;5052585;28;20377;-78
2021/04/18 00:47:47;;;;;;;13.23;4.95;;;7.10;31.00;;;;;;5036858;28;20382;-76
2021/04/18 00:50:18;;;;;;;9.43;4.80;;;7.10;30.70;;;;;;5052462;28;20544;-77
2021/04/18 00:52:44;;;;;;;7.68;4.40;;;7.10;30.50;;;;;;5050796;28;20388;-76
2021/04/18 00:55:10;;;;;;;8.20;5.37;;;7.10;31.00;;;;;;5051731;28;20866;-77
2021/04/18 00:57:36;;;;;;;11.52;4.15;;;7.10;30.90;;;;;;5051189;28;20741;-76
2021/04/18 01:00:09;;;;;;;8.95;4.90;;;7.10;30.30;;;;;;5034472;28;20474;-75
2021/04/18 01:02:35;;;;;;;11.30;4.75;;;7.10;30.10;;;;;;5043768;28;20467;-77
2021/04/18 01:05:01;;;;;;;9.27;4.65;;;7.10;30.30;;;;;;5052442;28;20386;-77
2021/04/18 01:07:27;;;;;;;8.30;4.33;;;7.00;30.60;;;;;;5055667;28;20381;-77
2021/04/18 01:09:53;;;;;;;9.35;4.10;;;7.00;30.90;;;;;;5056142;28;20407;-77
2021/04/18 01:12:18;;;;;;;7.82;4.30;;;7.00;31.00;;;;;;5037938;28;20414;-77
2021/04/18 01:14:44;;;;;;;11.23;5.17;;;7.00;30.90;;;;;;5054948;28;20394;-77
2021/04/18 01:17:10;;;;;;;9.00;4.63;;;6.90;31.10;;;;;;5036966;28;20397;-75
2021/04/18 01:19:35;;;;;;;10.60;5.30;;;6.80;31.90;;;;;;5053207;28;20425;-74
2021/04/18 01:22:02;;;;;;;9.93;5.50;;;6.80;33.10;;;;;;5035072;28;20906;-74
2021/04/18 01:24:27;;;;;;;10.68;5.55;;;6.70;33.90;;;;;;5047344;28;20403;-74
2021/04/18 01:26:53;;;;;;;9.65;5.13;;;6.80;33.40;;;;;;5035009;28;20384;-74
2021/04/18 01:29:19;;;;;;;9.00;4.47;;;6.90;32.10;;;;;;5053458;28;20409;-74
2021/04/18 01:31:44;;;;;;;9.60;4.60;;;7.10;30.30;;;;;;5053693;28;20437;-74
2021/04/18 01:34:14;;;;;;;8.00;3.93;;;7.20;29.40;;;;;;5053036;28;20396;-74
2021/04/18 01:36:45;;;;;;;8.45;4.47;;;7.30;29.00;;;;;;5052957;28;20393;-74
2021/04/18 01:39:12;;;;;;;13.00;4.82;;;7.40;28.60;;;;;;5052570;28;20517;-74
2021/04/18 01:41:38;;;;;;;10.07;4.25;;;7.40;28.30;;;;;;5052972;28;20394;-75
2021/04/18 01:44:05;;;;;;;8.30;4.53;;;7.40;28.40;;;;;;5053519;28;20385;-74
2021/04/18 01:46:31;;;;;;;9.68;6.18;;;7.40;28.30;;;;;;5053014;28;20389;-75
2021/04/18 01:48:57;;;;;;;14.47;8.70;;;7.50;29.30;;;;;;5052946;28;20448;-75
2021/04/18 01:51:25;;;;;;;10.47;6.40;;;7.60;29.20;;;;;;5052760;28;20405;-74
2021/04/18 01:53:50;;;;;;;12.10;5.70;;;7.60;28.90;;;;;;5051901;28;20440;-75
2021/04/18 01:56:16;;;;;;;8.43;5.40;;;7.60;28.90;;;;;;5052743;28;20764;-74
2021/04/18 01:58:42;;;;;;;9.50;4.90;;;7.70;28.90;;;;;;5052959;28;20485;-74
2021/04/18 02:01:07;;;;;;;7.40;5.30;;;7.60;29.50;;;;;;5052946;28;20476;-74
2021/04/18 02:03:33;;;;;;;9.73;5.00;;;7.60;29.70;;;;;;5034688;28;20439;-74
2021/04/18 02:05:59;;;;;;;8.93;5.00;;;7.60;29.70;;;;;;5051784;28;20478;-74
2021/04/18 02:08:25;;;;;;;8.90;4.45;;;7.60;29.30;;;;;;5027508;28;20752;-74
2021/04/18 02:10:50;;;;;;;6.33;4.30;;;7.60;28.90;;;;;;5032494;28;20402;-74
2021/04/18 02:13:16;;;;;;;11.83;5.00;;;7.50;28.70;;;;;;5040706;28;20389;-74
2021/04/18 02:15:41;;;;;;;10.00;5.00;;;7.50;29.40;;;;;;5037757;28;20416;-74
2021/04/18 02:18:07;;;;;;;10.70;5.20;;;7.40;29.40;;;;;;5038824;28;20412;-75
2021/04/18 02:20:32;;;;;;;10.37;5.27;;;7.40;29.60;;;;;;5056168;28;20508;-76
2021/04/18 02:22:58;;;;;;;10.70;5.20;;;7.40;29.90;;;;;;5057236;28;20812;-75
2021/04/18 02:25:24;;;;;;;14.30;4.90;;;7.30;30.10;;;;;;5056937;28;20419;-74
2021/04/18 02:27:49;;;;;;;9.63;4.82;;;7.30;30.00;;;;;;5038240;28;20381;-76
2021/04/18 02:30:15;;;;;;;7.55;5.38;;;7.50;29.50;;;;;;5056861;28;20381;-75
2021/04/18 02:32:41;;;;;;;12.85;5.80;;;7.50;29.70;;;;;;5058461;28;20496;-75
2021/04/18 02:35:08;;;;;;;10.27;5.50;;;7.50;29.70;;;;;;5044513;28;20426;-77
2021/04/18 02:37:34;;;;;;;10.73;5.30;;;7.50;29.50;;;;;;5040063;28;20398;-75
2021/04/18 02:39:59;;;;;;;10.15;5.07;;;7.60;29.10;;;;;;5055002;28;20385;-75
2021/04/18 02:42:25;;;;;;;8.50;4.60;;;7.60;29.20;;;;;;5055229;28;20397;-75
2021/04/18 02:44:51;;;;;;;10.43;5.40;;;7.70;28.60;;;;;;5057561;28;20935;-75
2021/04/18 02:47:16;;;;;;;10.23;5.50;;;7.70;29.00;;;;;;5055131;28;20393;-75
2021/04/18 02:49:42;;;;;;;12.02;5.97;;;7.60;29.90;;;;;;5055535;28;20389;-75
2021/04/18 02:52:08;;;;;;;12.07;5.50;;;7.60;30.30;;;;;;5037248;28;20385;-75
2021/04/18 02:54:34;;;;;;;11.65;6.13;;;7.70;29.70;;;;;;5055163;28;20397;-75
2021/04/18 02:57:00;;;;;;;11.07;5.32;;;7.60;30.80;;;;;;5072404;28;20457;-75
2021/04/18 02:59:26;;;;;;;12.60;5.87;;;7.60;30.90;;;;;;5072335;28;20425;-73
2021/04/18 03:01:51;;;;;;;12.83;6.27;;;7.80;30.80;;;;;;5037076;28;20747;-75
2021/04/18 03:04:17;;;;;;;11.30;5.90;;;7.90;29.70;;;;;;5034571;28;20481;-76
2021/04/18 03:06:42;;;;;;;10.40;5.10;;;7.90;30.00;;;;;;5052049;28;20453;-74
2021/04/18 03:09:08;;;;;;;16.13;5.63;;;7.80;29.50;;;;;;5018851;28;20546;-76
2021/04/18 03:11:35;;;;;;;9.17;5.80;;;7.80;29.60;;;;;;5042697;28;20398;-75
2021/04/18 03:14:00;;;;;;;11.87;5.67;;;7.60;30.20;;;;;;5053019;28;20432;-75
2021/04/18 03:16:26;;;;;;;8.70;5.00;;;7.80;29.00;;;;;;5056486;28;20393;-75
2021/04/18 03:18:51;;;;;;;10.07;5.20;;;7.70;28.70;;;;;;5055539;28;20853;-75
2021/04/18 03:21:17;;;;;;;10.27;5.20;;;7.60;29.30;;;;;;5054973;28;20393;-74
2021/04/18 03:23:42;;;;;;;12.10;5.70;;;7.60;29.50;;;;;;5042553;28;20407;-75
2021/04/18 03:26:08;;;;;;;9.87;5.20;;;7.60;30.10;;;;;;5023853;28;20424;-75
2021/04/18 03:28:34;;;;;;;9.85;5.30;;;7.50;30.60;;;;;;5054301;28;20393;-75
2021/04/18 03:30:59;;;;;;;10.75;5.30;;;7.30;31.10;;;;;;5056366;28;20377;-75
2021/04/18 03:33:25;;;;;;;10.60;5.75;;;7.20;31.80;;;;;;5037429;28;20866;-75
2021/04/18 03:35:51;;;;;;;11.27;5.80;;;7.20;32.20;;;;;;5054541;28;20425;-74
2021/04/18 03:38:16;;;;;;;16.63;6.13;;;7.20;32.60;;;;;;5037588;28;20397;-75
2021/04/18 03:40:44;;;;;;;12.80;6.10;;;7.10;33.20;;;;;;5056287;28;20389;-75
2021/04/18 03:43:09;;;;;;;7.55;5.38;;;7.20;33.10;;;;;;5055794;28;20416;-75
2021/04/18 03:45:36;;;;;;;13.17;7.00;;;7.30;32.70;;;;;;5056807;28;20393;-74
2021/04/18 03:48:01;;;;;;;11.10;6.00;;;7.40;33.00;;;;;;5056563;28;20894;-75
2021/04/18 03:50:27;;;;;;;10.17;6.20;;;7.40;33.00;;;;;;5054546;28;20473;-74
2021/04/18 03:52:55;;;;;;;12.37;6.63;;;7.30;33.60;;;;;;5053219;28;20469;-73
2021/04/18 03:55:22;;;;;;;9.25;6.25;;;7.30;33.80;;;;;;5067452;22;20393;-71
2021/04/18 03:57:48;;;;;;;11.32;6.60;;;7.20;33.90;;;;;;5031389;28;20749;-70
2021/04/18 04:00:14;;;;;;;15.87;7.37;;;7.20;34.10;;;;;;5050553;28;20381;-71
2021/04/18 04:02:39;;;;;;;14.40;6.93;;;7.20;34.60;;;;;;5050105;28;20444;-70
2021/04/18 04:05:05;;;;;;;12.73;7.05;;;7.20;34.70;;;;;;5042053;28;20496;-71
2021/04/18 04:07:31;;;;;;;12.20;7.67;;;7.20;35.10;;;;;;5049188;28;20937;-70
2021/04/18 04:09:56;;;;;;;14.02;8.40;;;7.20;35.50;;;;;;5050520;28;20515;-70
2021/04/18 04:12:24;;;;;;;18.90;8.60;;;7.20;35.50;;;;;;5050466;28;20404;-70
2021/04/18 04:14:51;;;;;;;17.13;8.30;;;7.20;35.80;;;;;;5030940;28;20399;-69
2021/04/18 04:17:17;;;;;;;16.90;9.35;;;7.10;36.40;;;;;;5018159;28;20389;-70
2021/04/18 04:19:42;;;;;;;18.60;10.50;;;7.10;37.10;;;;;;5049634;28;20908;-70
2021/04/18 04:22:08;;;;;;;17.60;10.20;;;7.10;37.40;;;;;;5020198;28;20439;-70
2021/04/18 04:24:33;;;;;;;19.90;10.63;;;7.10;37.70;;;;;;5010901;28;20797;-70
2021/04/18 04:26:59;;;;;;;19.50;9.90;;;7.00;38.10;;;;;;5013817;28;20423;-69
2021/04/18 04:29:24;;;;;;;17.80;10.80;;;7.10;37.80;;;;;;5031433;28;20890;-70
2021/04/18 04:31:50;;;;;;;20.30;10.30;;;7.20;37.40;;;;;;5030824;28;20383;-70
2021/04/18 04:34:15;;;;;;;18.10;10.65;;;7.20;37.40;;;;;;5033376;28;20398;-69
2021/04/18 04:36:41;;;;;;;23.52;10.95;;;7.20;37.90;;;;;;5030849;28;20510;-70
2021/04/18 04:39:07;;;;;;;19.90;11.10;;;7.20;38.20;;;;;;5031162;28;20383;-70
2021/04/18 04:41:33;;;;;;;21.10;12.18;;;7.10;38.90;;;;;;5016122;28;20399;-71
2021/04/18 04:43:59;;;;;;;23.85;11.48;;;7.20;38.70;;;;;;5034836;28;20406;-71
2021/04/18 04:46:25;;;;;;;21.88;11.30;;;7.30;38.30;;;;;;5037457;28;20391;-70
2021/04/18 04:48:51;;;;;;;21.75;11.80;;;7.30;38.40;;;;;;5054952;28;20438;-70
2021/04/18 04:51:17;;;;;;;22.53;11.40;;;7.30;38.90;;;;;;5055319;28;20469;-70
2021/04/18 04:53:42;;;;;;;21.33;11.00;;;7.30;38.60;;;;;;5054098;28;20392;-70
2021/04/18 04:56:08;;;;;;;26.50;11.43;;;7.20;38.60;;;;;;5045035;28;20414;-70
2021/04/18 04:58:33;;;;;;;27.13;11.17;;;7.20;39.30;;;;;;5035035;28;20384;-71
2021/04/18 05:00:59;;;;;;;23.70;12.73;;;7.20;39.90;;;;;;5042254;28;20491;-71
2021/04/18 05:03:27;;;;;;;29.67;12.57;;;7.20;39.90;;;;;;5041913;28;20415;-69
2021/04/18 05:05:53;;;;;;;26.25;12.55;;;7.00;42.30;;;;;;5034643;28;20410;-71
2021/04/18 05:08:19;;;;;;;25.02;12.05;;;7.00;43.90;;;;;;5034750;28;20814;-71
2021/04/18 05:10:45;;;;;;;27.33;11.68;;;7.30;40.70;;;;;;5034979;28;20410;-71
2021/04/18 05:13:10;;;;;;;24.83;12.50;;;7.50;39.30;;;;;;5034036;28;20399;-70
2021/04/18 05:15:36;;;;;;;31.83;13.40;;;7.60;38.80;;;;;;5046672;28;20401;-70
2021/04/18 05:18:03;;;;;;;31.17;12.87;;;7.60;38.90;;;;;;5053835;28;20399;-70
2021/04/18 05:20:29;;;;;;;33.13;12.95;;;7.40;39.70;;;;;;5053738;28;20391;-71
2021/04/18 05:22:55;;;;;;;34.97;13.57;;;7.40;40.80;;;;;;5054042;28;20409;-71
2021/04/18 05:25:20;;;;;;;29.98;13.20;;;7.30;41.80;;;;;;5054140;28;20381;-70
2021/04/18 05:27:46;;;;;;;26.88;13.85;;;7.20;42.40;;;;;;5045629;28;20387;-71
2021/04/18 05:30:12;;;;;;;27.23;12.98;;;7.30;43.30;;;;;;5052204;28;20389;-70
2021/04/18 05:32:38;;;;;;;31.23;13.25;;;7.30;42.50;;;;;;5034662;28;20406;-70
2021/04/18 05:35:04;;;;;;;24.90;12.60;;;7.20;43.10;;;;;;5048620;28;20754;-69
2021/04/18 05:37:30;;;;;;;26.42;13.43;;;7.20;43.80;;;;;;5054566;28;20521;-70
2021/04/18 05:39:56;;;;;;;24.20;11.60;;;7.30;44.50;;;;;;5053918;28;20421;-70
2021/04/18 05:42:21;;;;;;;23.37;11.60;;;7.40;43.50;;;;;;5040115;28;20440;-69
2021/04/18 05:44:48;;;;;;;28.97;11.10;;;7.30;44.40;;;;;;5053873;28;20389;-70
2021/04/18 05:47:14;;;;;;;30.42;12.60;;;7.20;44.90;;;;;;5054429;28;20396;-70
2021/04/18 05:49:40;;;;;;;24.75;12.10;;;7.30;45.40;;;;;;5054321;28;20568;-70
2021/04/18 05:52:06;;;;;;;25.73;11.55;;;7.40;44.40;;;;;;5021767;28;20931;-71
2021/04/18 05:54:32;;;;;;;19.80;11.60;;;7.50;44.10;;;;;;5034165;28;20721;-71
2021/04/18 05:56:58;;;;;;;25.25;11.00;;;7.50;43.80;;;;;;5043726;28;20410;-70
2021/04/18 05:59:24;;;;;;;22.33;11.60;;;7.50;44.10;;;;;;5053018;28;20393;-70
2021/04/18 06:01:49;;;;;;;21.95;11.50;;;7.60;43.90;;;;;;5051936;28;20405;-69
2021/04/18 06:04:15;;;;;;;27.17;11.83;;;7.80;42.90;;;;;;5051932;28;20405;-70
2021/04/18 06:06:41;;;;;;;24.80;12.38;;;7.80;43.50;;;;;;5037999;28;20387;-70
2021/04/18 06:09:07;;;;;;;28.05;14.10;;;7.90;42.80;;;;;;5046085;28;20440;-69
2021/04/18 06:11:32;;;;;;;26.77;12.05;;;8.20;50.00;;;;;;5047747;28;20402;-69
2021/04/18 06:13:58;;;;;;;30.27;13.13;;;8.20;40.90;;;;;;5037593;28;20476;-70
2021/04/18 06:16:23;;;;;;;30.40;12.10;;;8.20;41.40;;;;;;5033954;28;20416;-70
2021/04/18 06:18:49;;;;;;;25.73;12.33;;;8.20;40.80;;;;;;5050171;28;20388;-70
2021/04/18 06:21:15;;;;;;;31.13;12.70;;;8.10;41.90;;;;;;5050459;28;20866;-69
2021/04/18 06:23:41;;;;;;;23.38;11.85;;;8.20;41.10;;;;;;5051107;28;20492;-69
2021/04/18 06:26:07;;;;;;;25.27;11.53;;;8.20;41.60;;;;;;5050754;28;20463;-69
2021/04/18 06:28:32;;;;;;;27.80;12.27;;;7.90;42.60;;;;;;5036214;28;20483;-68
2021/04/18 06:30:58;;;;;;;25.88;12.40;;;7.80;44.00;;;;;;5033675;28;20606;-69
2021/04/18 06:33:24;;;;;;;27.85;12.10;;;7.80;44.50;;;;;;5031794;28;20391;-69
2021/04/18 06:35:49;;;;;;;22.63;12.05;;;7.80;44.70;;;;;;5033151;28;20887;-68
2021/04/18 06:38:15;;;;;;;27.50;13.15;;;8.00;44.40;;;;;;5045262;28;20403;-68
2021/04/18 06:40:41;;;;;;;25.83;12.87;;;8.10;44.00;;;;;;5044249;28;20481;-68
2021/04/18 06:43:11;;;;;;;27.25;12.65;;;8.30;41.90;;;;;;5011828;28;20412;-68
2021/04/18 06:45:37;;;;;;;24.92;12.63;;;8.50;40.70;;;;;;5027806;28;20408;-69
2021/04/18 06:48:04;;;;;;;26.10;12.27;;;8.50;40.30;;;;;;5033053;28;20470;-68
2021/04/18 06:50:30;;;;;;;28.88;12.73;;;8.50;40.10;;;;;;5032846;28;20476;-69
2021/04/18 06:52:56;;;;;;;26.75;12.43;;;8.60;40.60;;;;;;5031848;28;20544;-69
2021/04/18 06:55:22;;;;;;;24.30;11.65;;;8.70;40.00;;;;;;5037587;28;20402;-69
2021/04/18 06:57:47;;;;;;;26.30;12.40;;;8.70;39.80;;;;;;5031494;28;20394;-70
2021/04/18 07:00:14;;;;;;;27.30;12.73;;;8.80;39.10;;;;;;5031903;28;20430;-70
2021/04/18 07:02:41;;;;;;;28.80;13.02;;;8.60;40.50;;;;;;5015618;28;20936;-69
2021/04/18 07:05:11;;;;;;;26.92;13.30;;;8.60;42.00;;;;;;5031971;28;20514;-69
2021/04/18 07:07:40;;;;;;;28.80;12.70;;;8.80;42.20;;;;;;5049579;28;20407;-74
2021/04/18 07:10:13;;;;;;;26.67;13.93;;;8.90;40.30;;;;;;5034064;28;21096;-71
2021/04/18 07:12:41;;;;;;;26.75;13.05;;;8.70;41.30;;;;;;5034307;28;20906;-71
2021/04/18 07:15:08;;;;;;;38.60;15.63;;;8.80;41.60;;;;;;5032551;28;20416;-71
2021/04/18 07:17:48;;;;;;;37.92;16.85;;;8.90;40.50;;;;;;5041356;28;20397;-72
2021/04/18 07:20:16;;;;;;;41.15;18.48;;;8.70;42.00;;;;;;5042651;28;20389;-74
2021/04/18 07:22:42;;;;;;;46.90;19.40;;;8.70;43.10;;;;;;5031987;28;20437;-73
2021/04/18 07:25:09;;;;;;;46.47;19.00;;;8.80;42.30;;;;;;5031404;28;20418;-71
2021/04/18 07:27:48;;;;;;;39.63;18.48;;;9.00;42.00;;;;;;5027440;28;20395;-71
2021/04/18 07:30:15;;;;;;;40.45;18.27;;;9.40;39.20;;;;;;5012432;28;20375;-70
2021/04/18 07:32:43;;;;;;;42.97;20.00;;;9.60;38.00;;;;;;5034635;28;20391;-71
2021/04/18 07:35:35;;;;;;;51.67;20.98;;;9.90;37.10;;;;;;5037490;28;20925;-73
2021/04/18 07:38:23;;;;;;;50.63;19.73;;;10.10;35.70;;;;;;5040104;28;20493;-72
2021/04/18 07:40:51;;;;;;;47.05;19.73;;;10.40;34.30;;;;;;5023330;28;20406;-73
2021/04/18 07:43:18;;;;;;;37.60;17.43;;;10.40;34.50;;;;;;5039859;28;20457;-71
2021/04/18 07:45:46;;;;;;;41.22;17.80;;;10.60;33.00;;;;;;5047105;28;20404;-69
2021/04/18 07:48:17;;;;;;;35.80;16.92;;;10.70;32.50;;;;;;5038771;28;20425;-70
2021/04/18 07:50:45;;;;;;;32.17;15.95;;;10.70;32.80;;;;;;5011535;28;20901;-70
2021/04/18 07:53:14;;;;;;;35.03;15.50;;;10.80;31.60;;;;;;5014583;28;20403;-70
2021/04/18 07:55:40;;;;;;;35.22;15.48;;;10.80;31.20;;;;;;5041529;28;20797;-70
2021/04/18 07:58:05;;;;;;;32.88;15.77;;;10.90;31.30;;;;;;5032441;28;20403;-70
2021/04/18 08:00:31;;;;;;;30.70;15.65;;;11.30;29.50;;;;;;5039034;28;20457;-70
2021/04/18 08:02:57;;;;;;;32.28;14.73;;;11.40;28.60;;;;;;5012810;28;20485;-70
2021/04/18 08:05:25;;;;;;;34.47;16.48;;;11.40;28.50;;;;;;5030258;28;20395;-74
2021/04/18 08:08:01;;;;;;;41.58;17.92;;;11.20;29.40;;;;;;5040552;28;20518;-71
2021/04/18 08:10:32;;;;;;;47.28;17.98;;;11.40;29.80;;;;;;5035930;28;20451;-70
2021/04/18 08:13:23;;;;;;;48.75;17.90;;;11.20;30.30;;;;;;5014088;28;20469;-71
2021/04/18 08:15:55;;;;;;;40.47;17.40;;;10.90;30.90;;;;;;5050564;28;20670;-70
2021/04/18 08:18:42;;;;;;;41.75;16.67;;;10.60;33.00;;;;;;5045862;28;20407;-72
2021/04/18 08:21:24;;;;;;;42.80;18.45;;;10.50;31.70;;;;;;5050886;28;20926;-71
2021/04/18 08:23:51;;;;;;;40.58;17.92;;;10.60;31.60;;;;;;5040260;28;20399;-72
2021/04/18 08:26:18;;;;;;;34.97;17.42;;;11.00;31.10;;;;;;5016545;28;20387;-73
2021/04/18 08:29:05;;;;;;;38.72;17.90;;;11.40;28.40;;;;;;5033852;28;20743;-72
2021/04/18 08:31:52;;;;;;;39.80;18.55;;;11.30;28.00;;;;;;5049590;28;20893;-71
2021/04/18 08:34:31;;;;;;;42.70;21.08;;;11.50;27.80;;;;;;5034304;28;20387;-71
2021/04/18 08:36:59;;;;;;;41.42;19.90;;;11.70;28.00;;;;;;5039053;28;20391;-73
2021/04/18 08:39:29;;;;;;;46.72;21.48;;;11.60;27.90;;;;;;5053774;28;20432;-71
2021/04/18 08:42:00;;;;;;;43.95;20.65;;;11.70;27.80;;;;;;5042609;28;20441;-71
2021/04/18 08:44:30;;;;;;;41.00;21.30;;;11.80;27.10;;;;;;5040582;28;20391;-73
2021/04/18 08:46:59;;;;;;;43.45;21.92;;;11.90;26.80;;;;;;5053272;28;20420;-71
2021/04/18 08:49:51;;;;;;;51.10;23.70;;;12.10;25.80;;;;;;5047058;28;20426;-72
2021/04/18 08:52:21;;;;;;;53.42;24.23;;;12.60;24.30;;;;;;5035334;28;20442;-71
2021/04/18 08:54:48;;;;;;;54.22;23.38;;;12.80;24.10;;;;;;5026025;28;20445;-73
2021/04/18 08:57:15;;;;;;;42.17;19.30;;;12.60;24.60;;;;;;5041712;28;20407;-70
2021/04/18 08:59:45;;;;;;;36.55;18.00;;;11.90;25.30;;;;;;5033179;28;20403;-71
2021/04/18 09:02:12;;;;;;;39.83;16.80;;;11.50;26.70;;;;;;5015678;28;20411;-71
2021/04/18 09:04:40;;;;;;;38.25;16.17;;;11.20;28.80;;;;;;5032933;28;20487;-71
2021/04/18 09:07:10;;;;;;;32.83;17.20;;;11.10;29.90;;;;;;5031740;28;20424;-71
2021/04/18 09:09:37;;;;;;;37.13;14.90;;;11.10;30.10;;;;;;5032788;28;20884;-71
2021/04/18 09:12:03;;;;;;;36.13;16.48;;;11.00;29.40;;;;;;5032933;28;20880;-72
2021/04/18 09:14:44;;;;;;;35.38;14.73;;;11.10;29.90;;;;;;5031892;28;20426;-72
2021/04/18 09:17:18;;;;;;;33.53;14.60;;;11.10;29.10;;;;;;5018741;28;20405;-69
2021/04/18 09:19:58;;;;;;;30.27;13.60;;;11.40;28.00;;;;;;5019358;28;20491;-71
2021/04/18 09:22:34;;;;;;;31.02;14.15;;;11.50;27.50;;;;;;5038574;28;20415;-74
2021/04/18 09:25:14;;;;;;;31.30;15.40;;;11.40;29.10;;;;;;5034764;28;20403;-73
2021/04/18 09:27:47;;;;;;;36.55;15.85;;;11.30;29.30;;;;;;5021539;28;20391;-70
2021/04/18 09:30:14;;;;;;;28.10;14.70;;;11.30;29.00;;;;;;5025015;28;20397;-71
2021/04/18 09:32:44;;;;;;;34.85;15.50;;;11.20;29.70;;;;;;5025280;28;20898;-72
2021/04/18 09:35:12;;;;;;;29.13;15.20;;;11.30;29.70;;;;;;5033860;28;20428;-70
2021/04/18 09:37:40;;;;;;;31.52;14.45;;;11.30;30.20;;;;;;5038894;28;20393;-69
2021/04/18 09:40:09;;;;;;;24.53;12.80;;;11.60;29.20;;;;;;5052333;28;20385;-70
2021/04/18 09:42:37;;;;;;;23.45;12.85;;;11.80;28.20;;;;;;5019224;28;20455;-70
2021/04/18 09:45:12;;;;;;;27.33;13.60;;;12.00;26.80;;;;;;5041467;28;20397;-74
2021/04/18 09:47:39;;;;;;;24.00;12.70;;;12.10;27.00;;;;;;5040475;28;20438;-71
2021/04/18 09:50:14;;;;;;;19.65;11.32;;;12.40;25.40;;;;;;5042120;28;20850;-72
2021/04/18 09:52:40;;;;;;;22.05;10.60;;;12.30;23.60;;;;;;5012530;28;20400;-73
2021/04/18 09:55:14;;;;;;;18.67;10.60;;;12.30;23.30;;;;;;5030960;28;20925;-75
2021/04/18 09:57:43;;;;;;;26.10;10.50;;;12.00;23.20;;;;;;5063182;22;20437;-76
2021/04/18 10:00:11;;;;;;;21.85;10.60;;;11.90;23.40;;;;;;5057504;28;20472;-74
2021/04/18 10:02:37;;;;;;;21.25;11.80;;;11.90;23.50;;;;;;5052570;28;20562;-75
2021/04/18 10:05:15;;;;;;;27.20;11.35;;;12.10;24.40;;;;;;5055418;28;20450;-76
2021/04/18 10:07:42;;;;;;;27.17;12.35;;;12.30;23.40;;;;;;5057558;28;20742;-76
2021/04/18 10:10:09;;;;;;;25.27;13.17;;;12.10;23.10;;;;;;5053846;28;20397;-75
2021/04/18 10:12:49;;;;;;;27.98;13.15;;;12.10;24.00;;;;;;5034143;28;20397;-76
2021/04/18 10:15:14;;;;;;;23.75;12.75;;;12.50;22.50;;;;;;5034698;28;20409;-74
2021/04/18 10:17:40;;;;;;;26.70;13.33;;;12.60;21.90;;;;;;5055018;28;20400;-77
2021/04/18 10:20:07;;;;;;;25.27;12.73;;;12.60;22.00;;;;;;5044534;28;20438;-74
2021/04/18 10:22:32;;;;;;;27.07;13.23;;;13.00;21.40;;;;;;5037410;28;20404;-72
2021/04/18 10:25:00;;;;;;;25.43;12.83;;;13.40;20.00;;;;;;5033966;28;20425;-73
2021/04/18 10:27:29;;;;;;;25.08;12.77;;;13.20;19.70;;;;;;5037172;28;20391;-76
2021/04/18 10:29:55;;;;;;;22.13;12.60;;;13.00;20.60;;;;;;5038308;28;20399;-78
2021/04/18 10:32:22;;;;;;;29.83;13.88;;;12.80;21.10;;;;;;5030752;28;20389;-77
2021/04/18 10:34:49;;;;;;;24.35;13.20;;;12.50;22.30;;;;;;5034307;28;20509;-78
2021/04/18 10:37:15;;;;;;;24.02;12.68;;;12.40;23.10;;;;;;5046504;28;20767;-76
2021/04/18 10:39:40;;;;;;;24.48;13.82;;;12.10;23.40;;;;;;5044994;28;20474;-76
2021/04/18 10:42:07;;;;;;;25.52;12.38;;;12.20;23.50;;;;;;5033424;28;20419;-77
2021/04/18 10:44:33;;;;;;;24.10;12.60;;;12.10;23.20;;;;;;5044103;28;20781;-78
2021/04/18 10:47:04;;;;;;;26.38;12.90;;;12.10;23.90;;;;;;5056574;28;20441;-78
2021/04/18 10:49:30;;;;;;;20.02;10.75;;;12.20;22.70;;;;;;5054790;28;20392;-78
2021/04/18 10:51:56;;;;;;;24.23;12.25;;;12.30;22.10;;;;;;5054727;28;20404;-76
2021/04/18 10:54:22;;;;;;;22.20;13.05;;;12.50;22.40;;;;;;5041807;28;20431;-76
2021/04/18 10:56:49;;;;;;;22.47;12.70;;;12.60;21.90;;;;;;5017952;28;20401;-77
2021/04/18 10:59:15;;;;;;;31.95;12.90;;;12.90;21.40;;;;;;5059968;28;20403;-77
2021/04/18 11:01:41;;;;;;;25.98;12.25;;;13.20;19.70;;;;;;5061759;28;20422;-78
2021/04/18 11:04:07;;;;;;;24.23;13.15;;;13.60;19.20;;;;;;5015616;28;20391;-77
2021/04/18 11:06:33;;;;;;;22.20;13.32;;;14.10;18.00;;;;;;5061175;28;20426;-76
2021/04/18 11:08:59;;;;;;;20.73;11.93;;;14.00;17.00;;;;;;5032823;28;20417;-76
2021/04/18 11:11:25;;;;;;;28.43;13.10;;;14.10;17.30;;;;;;5066121;28;20419;-76
2021/04/18 11:13:52;;;;;;;22.13;12.85;;;13.80;17.40;;;;;;5071523;28;20394;-77
2021/04/18 11:16:18;;;;;;;24.13;12.38;;;13.50;17.70;;;;;;5041251;28;20935;-78
2021/04/18 11:18:43;;;;;;;24.15;12.52;;;13.10;19.00;;;;;;5067588;28;20421;-77
2021/04/18 11:21:09;;;;;;;28.40;13.98;;;13.00;19.30;;;;;;5082763;28;20809;-76
2021/04/18 11:23:35;;;;;;;19.43;12.80;;;13.00;19.00;;;;;;5060774;28;20492;-76
2021/04/18 11:26:01;;;;;;;30.47;13.63;;;13.10;19.70;;;;;;5065219;28;20768;-77
2021/04/18 11:28:27;;;;;;;24.30;13.38;;;13.50;19.40;;;;;;5056551;28;20436;-76
2021/04/18 11:30:52;;;;;;;23.67;12.95;;;13.80;17.90;;;;;;5051221;28;20397;-76
2021/04/18 11:33:18;;;;;;;23.15;13.55;;;13.60;18.10;;;;;;5065703;28;20413;-76
2021/04/18 11:35:44;;;;;;;20.55;12.23;;;13.70;17.20;;;;;;5052513;28;20399;-76
2021/04/18 11:38:09;;;;;;;26.35;13.00;;;13.80;17.90;;;;;;5071052;28;20431;-77
2021/04/18 11:40:35;;;;;;;24.38;13.63;;;13.90;17.40;;;;;;5045832;28;20424;-75
2021/04/18 11:43:02;;;;;;;22.38;13.10;;;14.10;17.30;;;;;;5055358;28;20991;-75
2021/04/18 11:45:28;;;;;;;24.98;13.00;;;14.30;16.80;;;;;;5038864;28;20397;-75
2021/04/18 11:47:54;;;;;;;25.67;13.07;;;14.80;16.70;;;;;;5050684;28;20899;-75
2021/04/18 11:50:20;;;;;;;25.33;13.00;;;15.00;15.40;;;;;;5050395;28;20861;-75
2021/04/18 11:52:46;;;;;;;24.95;12.90;;;15.20;14.40;;;;;;5046732;28;20415;-75
2021/04/18 11:55:13;;;;;;;23.23;14.40;;;15.40;14.40;;;;;;5035518;28;20385;-76
2021/04/18 11:57:39;;;;;;;22.85;13.48;;;15.60;14.90;;;;;;5058939;28;20398;-76
2021/04/18 12:00:07;;;;;;;30.77;14.40;;;15.60;14.20;;;;;;5053839;28;20426;-75
2021/04/18 12:02:33;;;;;;;25.95;14.50;;;15.10;15.80;;;;;;5058976;28;20398;-75
2021/04/18 12:04:58;;;;;;;23.33;13.98;;;15.10;15.90;;;;;;5040101;28;20426;-75
2021/04/18 12:07:24;;;;;;;27.83;15.10;;;15.50;16.20;;;;;;5078210;28;20384;-73
2021/04/18 12:09:50;;;;;;;21.73;13.00;;;15.60;15.40;;;;;;5059473;28;20408;-74
2021/04/18 12:12:16;;;;;;;32.00;12.83;;;15.60;13.70;;;;;;5060500;28;20478;-74
2021/04/18 12:14:41;;;;;;;28.25;14.43;;;15.50;14.20;;;;;;5047950;28;20389;-75
2021/04/18 12:17:07;;;;;;;29.90;14.82;;;15.50;14.10;;;;;;5048566;28;20540;-75
2021/04/18 12:19:33;;;;;;;25.90;15.30;;;14.90;15.80;;;;;;5060426;28;20401;-74
2021/04/18 12:21:58;;;;;;;31.15;16.35;;;15.00;15.60;;;;;;5059019;28;20406;-74
2021/04/18 12:24:24;;;;;;;25.90;15.07;;;15.20;15.20;;;;;;5061418;28;20412;-72
2021/04/18 12:26:49;;;;;;;21.90;13.53;;;15.60;14.60;;;;;;5068232;28;20397;-74
2021/04/18 12:29:15;;;;;;;25.53;14.30;;;15.20;15.40;;;;;;5062067;28;20892;-74
2021/04/18 12:31:41;;;;;;;20.58;11.02;;;15.20;14.90;;;;;;5051235;28;20390;-75
2021/04/18 12:34:08;;;;;;;22.47;12.13;;;14.80;14.70;;;;;;5054492;28;20920;-73
2021/04/18 12:36:34;;;;;;;23.73;12.83;;;14.90;14.70;;;;;;5050426;28;20486;-74
2021/04/18 12:38:59;;;;;;;21.00;12.23;;;14.70;15.10;;;;;;5051494;28;20439;-77